ADDS METAR Data INFO
IDs: Format: Raw Decoded Include TAF

Data at: 0259 UTC 21 Jan 2018

KGLH 210253Z AUTO 18006KT 10SM SCT045 11/10 A3013 RMK AO2 SLP209 T01110100 51007
KGLH 210153Z AUTO 16008KT 10SM BKN049 13/11 A3012 RMK AO2 SLP208 T01330111
KGLH 210053Z AUTO 18006KT 10SM BKN039 OVC048 14/11 A3012 RMK AO2 SLP207 T01390111
KGLH 202353Z 18007KT 10SM BKN047 OVC060 14/11 A3010 RMK AO2 SLP202 60000 T01440111 10183 20133 51001
KGLH 202253Z 18010KT 10SM SCT049 SCT070 15/12 A3011 RMK AO2 SLP202 T01500117
KGLH 202222Z 18011KT 10SM FEW022 BKN042 OVC100 17/12 A3011 RMK AO2 T01670117
KGLH 202153Z 18011KT 10SM BKN022 OVC049 17/12 A3011 RMK AO2 SLP203 T01670117
KGLH 202053Z 18013KT 10SM SCT060 BKN095 18/11 A3010 RMK AO2 SLP201 60000 T01780111 56022
KGLH 202017Z 18011KT 10SM SCT027 BKN035 OVC070 18/11 A3011 RMK AO2 T01830111
KGLH 201953Z 19011KT 10SM OVC027 17/10 A3011 RMK AO2 RAE1857 SLP204 P0000 T01670100
KGLH 201920Z 18010KT 10SM BKN027 BKN050 BKN090 17/09 A3012 RMK AO2 RAE1857 P0000 T01670094
KGLH 201853Z 17011KT 10SM -RA FEW028 SCT060 17/08 A3013 RMK AO2 RAB48 SLP211 P0000 T01670083
KGLH 201836Z 16007KT 10SM SCT023 16/08 A3014 RMK AO2 T01560078
KGLH 201753Z 16009KT 10SM BKN023 OVC060 13/06 A3017 RMK AO2 SLP223 T01330061 10133 20044 58009
KGLH 201702Z 17010KT 10SM BKN023 OVC033 12/04 A3018 RMK AO2 T01170039
KGLH 201653Z 17010KT 10SM SCT024 OVC033 12/03 A3019 RMK AO2 SLP231 T01170033
KGLH 201629Z 17010KT 10SM BKN025 OVC032 11/03 A3020 RMK AO2 T01060028
KGLH 201553Z 16008KT 10SM OVC031 09/01 A3020 RMK AO2 SLP236 T00940011
KGLH 201453Z 17008KT 10SM FEW030 OVC035 08/00 A3019 RMK AO2 SLP233 T00830000 53007
KGLH 201353Z 14007KT 10SM OVC032 06/M01 A3018 RMK AO2 SLP227 T00611011
KGLH 201253Z 16007KT 10SM BKN032 OVC080 06/M02 A3018 RMK AO2 SLP228 T00561022
KGLH 201153Z AUTO 17006KT 10SM BKN080 05/M02 A3017 RMK AO2 SLP226 T00501022 10067 20050 55002
KGLH 201053Z AUTO 17006KT 10SM OVC080 06/M03 A3017 RMK AO2 SLP226 T00611028
KGLH 200953Z AUTO 17005KT 10SM OVC065 06/M02 A3017 RMK AO2 SLP227 T00611022
KGLH 200853Z AUTO 17006KT 10SM OVC065 06/M02 A3018 RMK AO2 SLP229 T00561022 55002
KGLH 200753Z AUTO 17008KT 10SM OVC065 06/M02 A3018 RMK AO2 SLP228 T00561022
KGLH 200653Z AUTO 18005KT 10SM OVC060 06/M03 A3018 RMK AO2 SLP229 T00561028
KGLH 200553Z AUTO 17009KT 10SM OVC055 06/M03 A3019 RMK AO2 SLP231 T00611028 10061 20039 400611072 58005
KGLH 200453Z AUTO 19008KT 10SM OVC050 06/M03 A3020 RMK AO2 SLP235 T00561033
KGLH 200353Z AUTO 19006KT 10SM OVC049 06/M03 A3020 RMK AO2 SLP236 T00561033
KGLH 200253Z AUTO 18006KT 10SM OVC048 05/M02 A3020 RMK AO2 SLP237 T00501022 56003
KGLH 200153Z AUTO 23005KT 10SM OVC047 05/M02 A3021 RMK AO2 SLP239 T00501017
KGLH 200053Z AUTO 15009KT 10SM OVC048 04/M02 A3020 RMK AO2 SLP237 T00441022
KGLH 192353Z 18005KT 10SM FEW040 OVC047 04/M02 A3021 RMK AO2 SLP239 T00441022 10050 20033 58005
KGLH 192253Z 15006KT 10SM OVC047 04/M02 A3021 RMK AO2 SLP240 T00391017
KGLH 192153Z 13005KT 10SM BKN043 OVC050 04/M02 A3022 RMK AO2 SLP244 T00441017
KGLH 192053Z 13007KT 10SM OVC042 04/M02 A3022 RMK AO2 SLP244 T00391017 56028
KGLH 191953Z 17007KT 10SM OVC041 04/M03 A3024 RMK AO2 SLP250 T00441033
KGLH 191853Z 17006KT 10SM OVC049 04/M04 A3026 RMK AO2 SLP256 T00441039
KGLH 191753Z 17008KT 10SM OVC050 03/M04 A3030 RMK AO2 SLP272 T00331039 10033 21033 58012
KGLH 191653Z 19009KT 10SM OVC049 02/M04 A3034 RMK AO2 SLP283 T00221039
KGLH 191553Z 19007KT 10SM OVC047 01/M03 A3035 RMK AO2 SLP290 T00111033